Time;durP1;ratioP1;P1;durP2;ratioP2;P2;SDS_P1;SDS_P2;PMS_P1;PMS_P2;Temp;Humidity;BMP_temperature;BMP_pressure;BME280_temperature;BME280_humidity;BME280_pressure;Samples;Min_cycle;Max_cycle;Signal;HPM_P1;HPM_P2
2023/04/23 06:09:33;;;;;;;0.95;0.95;;;11.20;99.90;;;;;;6205423;22;20229;-67
2023/04/23 06:12:00;;;;;;;1.30;1.25;;;11.40;99.90;;;;;;6216860;23;20684;-66
2023/04/23 06:14:26;;;;;;;0.95;0.95;;;11.40;99.90;;;;;;6216870;23;20188;-66
2023/04/23 06:16:53;;;;;;;0.93;0.90;;;11.40;99.90;;;;;;6216926;23;20176;-66
2023/04/23 06:19:20;;;;;;;0.70;0.70;;;11.50;99.90;;;;;;6217189;23;20193;-66
2023/04/23 06:21:47;;;;;;;0.77;0.77;;;11.60;99.90;;;;;;6216935;23;20176;-66
2023/04/23 06:24:13;;;;;;;0.80;0.80;;;11.70;99.90;;;;;;6217541;23;20179;-68
2023/04/23 06:26:41;;;;;;;0.80;0.80;;;11.80;99.90;;;;;;6217138;23;20172;-70
2023/04/23 06:29:08;;;;;;;0.80;0.80;;;11.70;99.90;;;;;;6216781;23;20192;-68
2023/04/23 06:31:35;;;;;;;1.13;1.00;;;11.60;99.90;;;;;;6216936;23;20173;-68
2023/04/23 06:34:02;;;;;;;0.95;0.75;;;11.60;99.90;;;;;;6216877;23;20196;-68
2023/04/23 06:36:29;;;;;;;0.82;0.82;;;11.50;99.90;;;;;;6216494;23;20727;-67
2023/04/23 06:38:56;;;;;;;0.70;0.70;;;11.60;99.90;;;;;;6216735;23;20208;-68
2023/04/23 06:41:22;;;;;;;0.70;0.70;;;11.80;99.90;;;;;;6216780;23;20234;-67
2023/04/23 06:43:50;;;;;;;0.80;0.80;;;12.10;99.90;;;;;;6216474;23;20231;-67
2023/04/23 06:46:17;;;;;;;0.68;0.68;;;12.40;99.90;;;;;;6216402;23;20173;-67
2023/04/23 06:48:44;;;;;;;0.60;0.60;;;12.80;99.90;;;;;;6216469;23;20173;-68
2023/04/23 06:51:10;;;;;;;0.70;0.70;;;13.10;99.90;;;;;;6216533;23;20172;-68
2023/04/23 06:53:37;;;;;;;0.88;0.70;;;13.20;99.90;;;;;;6216807;23;20652;-68
2023/04/23 06:56:04;;;;;;;0.60;0.60;;;13.20;99.90;;;;;;6215973;23;20193;-68
2023/04/23 06:58:31;;;;;;;0.60;0.60;;;13.40;99.90;;;;;;6216425;23;20180;-68
2023/04/23 07:00:59;;;;;;;0.60;0.60;;;14.70;99.90;;;;;;6216323;23;20172;-67
2023/04/23 07:03:27;;;;;;;1.65;0.50;;;16.10;99.90;;;;;;6215916;23;20568;-68
2023/04/23 07:05:54;;;;;;;0.47;0.47;;;17.20;99.90;;;;;;6216393;23;20180;-69
2023/04/23 07:08:21;;;;;;;0.40;0.40;;;17.70;99.90;;;;;;6216274;23;20180;-69
2023/04/23 07:10:48;;;;;;;0.30;0.30;;;17.90;99.90;;;;;;6216372;23;20274;-68
2023/04/23 07:13:14;;;;;;;0.30;0.30;;;17.70;99.90;;;;;;6215969;23;20219;-68
2023/04/23 07:15:41;;;;;;;0.40;0.40;;;17.40;99.90;;;;;;6215964;23;20590;-68
2023/04/23 07:18:09;;;;;;;0.30;0.30;;;17.10;99.90;;;;;;6216454;23;20176;-69
2023/04/23 07:20:36;;;;;;;0.30;0.30;;;16.80;99.90;;;;;;6215850;23;20215;-68
2023/04/23 07:23:03;;;;;;;0.30;0.30;;;16.30;99.90;;;;;;6216304;23;20161;-68
2023/04/23 07:25:30;;;;;;;0.40;0.40;;;16.10;99.90;;;;;;6216167;23;20181;-67
2023/04/23 07:27:57;;;;;;;0.57;0.57;;;16.00;99.90;;;;;;6216149;23;20181;-69
2023/04/23 07:30:25;;;;;;;0.40;0.40;;;15.80;99.90;;;;;;6216064;23;20203;-68
2023/04/23 07:32:52;;;;;;;0.40;0.40;;;15.40;99.90;;;;;;6215997;23;20172;-67
2023/04/23 07:35:21;;;;;;;0.32;0.32;;;15.00;99.90;;;;;;6216065;23;20193;-68
2023/04/23 07:37:52;;;;;;;0.40;0.40;;;14.70;99.90;;;;;;6216239;23;20223;-68
2023/04/23 07:40:20;;;;;;;0.43;0.43;;;14.60;99.90;;;;;;6215661;23;20670;-68
2023/04/23 07:42:47;;;;;;;0.40;0.40;;;14.30;99.90;;;;;;6216150;23;20184;-67
2023/04/23 07:45:14;;;;;;;0.30;0.30;;;14.10;99.90;;;;;;6216062;23;20177;-67
2023/04/23 07:47:41;;;;;;;0.40;0.40;;;14.00;99.90;;;;;;6216036;23;20172;-68
2023/04/23 07:50:08;;;;;;;0.45;0.45;;;14.00;99.90;;;;;;6215719;23;20196;-68
2023/04/23 07:52:36;;;;;;;0.50;0.50;;;14.00;99.90;;;;;;6216135;23;20176;-68
2023/04/23 07:55:05;;;;;;;0.73;0.45;;;13.90;99.90;;;;;;6215931;23;20204;-67
2023/04/23 07:57:32;;;;;;;0.43;0.43;;;13.70;99.90;;;;;;6216156;23;20172;-68
2023/04/23 07:59:59;;;;;;;0.55;0.55;;;13.70;99.90;;;;;;6215856;23;20200;-68
2023/04/23 08:02:26;;;;;;;0.40;0.40;;;13.70;99.90;;;;;;6215732;23;20708;-68
2023/04/23 08:04:53;;;;;;;0.40;0.40;;;13.60;99.90;;;;;;6216197;23;20180;-68
2023/04/23 08:07:20;;;;;;;0.70;0.70;;;13.50;99.90;;;;;;6215786;23;20539;-67
2023/04/23 08:09:48;;;;;;;0.50;0.50;;;13.40;99.90;;;;;;6215981;23;20193;-68
2023/04/23 08:12:16;;;;;;;0.80;0.43;;;13.60;99.90;;;;;;6215863;23;20180;-66
2023/04/23 08:14:42;;;;;;;0.40;0.40;;;13.80;99.90;;;;;;6216694;23;20173;-66
2023/04/23 08:17:09;;;;;;;0.70;0.70;;;14.10;99.90;;;;;;6216134;23;20680;-66
2023/04/23 08:19:36;;;;;;;0.40;0.40;;;14.30;99.90;;;;;;6215897;23;20193;-66
2023/04/23 08:22:03;;;;;;;0.52;0.52;;;14.50;99.90;;;;;;6215947;23;20231;-67
2023/04/23 08:24:29;;;;;;;0.88;0.77;;;15.10;99.90;;;;;;6215977;23;20211;-66
2023/04/23 08:26:57;;;;;;;0.52;0.52;;;16.30;99.90;;;;;;6215881;23;20184;-67
2023/04/23 08:29:24;;;;;;;0.52;0.52;;;17.60;99.90;;;;;;6215832;23;20654;-67
2023/04/23 08:31:51;;;;;;;0.50;0.50;;;18.40;99.90;;;;;;6216465;23;20223;-67
2023/04/23 08:34:18;;;;;;;0.40;0.40;;;18.60;93.30;;;;;;6217656;23;20187;-67
2023/04/23 08:36:45;;;;;;;0.40;0.40;;;18.40;91.00;;;;;;6217882;23;20267;-67
2023/04/23 08:39:11;;;;;;;0.50;0.50;;;18.20;91.00;;;;;;6217716;23;20254;-67
2023/04/23 08:41:41;;;;;;;0.40;0.30;;;17.90;92.90;;;;;;6217743;23;20164;-67
2023/04/23 08:44:16;;;;;;;0.40;0.40;;;17.70;97.70;;;;;;6217856;23;20543;-66
2023/04/23 08:46:44;;;;;;;0.30;0.30;;;17.70;99.90;;;;;;6217637;23;20152;-66
2023/04/23 08:49:14;;;;;;;0.32;0.32;;;18.10;99.90;;;;;;6217592;23;20203;-68
2023/04/23 08:51:46;;;;;;;0.40;0.40;;;18.30;92.40;;;;;;6217706;23;20177;-67
2023/04/23 08:54:18;;;;;;;0.50;0.50;;;18.20;86.70;;;;;;6217927;23;20161;-66
2023/04/23 08:56:45;;;;;;;0.60;0.60;;;17.90;83.30;;;;;;6217659;23;20180;-67
2023/04/23 08:59:16;;;;;;;0.65;0.40;;;17.50;92.10;;;;;;6218363;23;20192;-67
2023/04/23 09:01:43;;;;;;;0.77;0.30;;;17.20;96.40;;;;;;6218144;23;20591;-67
2023/04/23 09:04:11;;;;;;;0.47;0.47;;;17.00;97.00;;;;;;6217227;23;20525;-66
2023/04/23 09:06:38;;;;;;;0.75;0.73;;;17.00;99.90;;;;;;6217601;23;20168;-67
2023/04/23 09:09:06;;;;;;;0.90;0.60;;;17.00;99.90;;;;;;6217515;23;20688;-69
2023/04/23 09:11:34;;;;;;;0.50;0.50;;;17.00;99.90;;;;;;6217528;23;20180;-68
2023/04/23 09:14:00;;;;;;;0.40;0.40;;;17.40;99.90;;;;;;6217987;23;20211;-67
2023/04/23 09:16:28;;;;;;;4.43;0.85;;;17.80;99.90;;;;;;6217205;23;20210;-66
2023/04/23 09:18:56;;;;;;;0.60;0.60;;;18.40;99.30;;;;;;6217055;23;20709;-66
2023/04/23 09:21:23;;;;;;;0.95;0.60;;;18.80;92.60;;;;;;6217364;23;20172;-67
2023/04/23 09:23:51;;;;;;;1.38;0.65;;;18.80;75.70;;;;;;6217614;23;20179;-67
2023/04/23 09:26:20;;;;;;;0.50;0.50;;;18.40;80.70;;;;;;6217315;23;20199;-66
2023/04/23 09:28:49;;;;;;;1.08;0.63;;;18.50;93.20;;;;;;6217375;23;20176;-66
2023/04/23 09:31:19;;;;;;;0.50;0.50;;;18.50;77.90;;;;;;6217291;23;20183;-67
2023/04/23 09:33:52;;;;;;;0.40;0.40;;;18.10;82.00;;;;;;6217193;23;20161;-66
2023/04/23 09:36:21;;;;;;;1.55;0.55;;;17.80;91.30;;;;;;6217106;23;20215;-67
2023/04/23 09:38:48;;;;;;;0.60;0.60;;;17.80;91.20;;;;;;6216770;23;20199;-66
2023/04/23 09:41:22;;;;;;;0.50;0.50;;;17.80;92.50;;;;;;6217072;23;20173;-66
2023/04/23 09:43:49;;;;;;;0.43;0.43;;;17.90;90.50;;;;;;6216747;23;20172;-67
2023/04/23 09:46:16;;;;;;;0.52;0.50;;;18.10;93.70;;;;;;6217103;23;20169;-67
2023/04/23 09:48:43;;;;;;;0.38;0.38;;;18.30;92.80;;;;;;6217071;23;20183;-66
2023/04/23 09:51:13;;;;;;;0.50;0.50;;;18.40;93.60;;;;;;6217095;23;20503;-66
2023/04/23 09:53:42;;;;;;;0.68;0.60;;;18.50;87.00;;;;;;6216869;23;20550;-66
2023/04/23 09:56:09;;;;;;;0.55;0.55;;;18.80;90.60;;;;;;6217057;23;20196;-67
2023/04/23 09:58:35;;;;;;;0.60;0.60;;;19.10;90.80;;;;;;6216666;23;20640;-68
2023/04/23 10:01:07;;;;;;;0.50;0.50;;;19.50;79.00;;;;;;6217035;23;20184;-68
2023/04/23 10:03:34;;;;;;;0.40;0.40;;;19.50;69.30;;;;;;6216901;23;20161;-69
2023/04/23 10:06:01;;;;;;;0.52;0.50;;;19.60;67.40;;;;;;6216755;23;20179;-69
2023/04/23 10:08:31;;;;;;;0.50;0.50;;;19.50;65.60;;;;;;6216956;23;20179;-68
2023/04/23 10:10:58;;;;;;;0.40;0.40;;;19.40;60.90;;;;;;6216954;23;20195;-68
2023/04/23 10:13:26;;;;;;;0.55;0.52;;;19.30;70.50;;;;;;6216483;23;20191;-68
2023/04/23 10:15:53;;;;;;;1.38;0.57;;;19.40;66.30;;;;;;6216539;23;20666;-69
2023/04/23 10:18:20;;;;;;;0.75;0.45;;;19.50;66.40;;;;;;6216811;23;20176;-69
2023/04/23 10:20:48;;;;;;;1.67;0.70;;;19.20;65.30;;;;;;6216683;23;20220;-69
2023/04/23 10:23:19;;;;;;;0.88;0.88;;;19.10;73.60;;;;;;6217246;23;20238;-68
2023/04/23 10:25:48;;;;;;;0.55;0.55;;;19.10;73.50;;;;;;6216583;23;20161;-68
2023/04/23 10:28:17;;;;;;;1.38;0.60;;;18.90;80.30;;;;;;6216664;23;20182;-68
2023/04/23 10:30:44;;;;;;;0.75;0.50;;;19.10;73.20;;;;;;6216588;23;20196;-67
2023/04/23 10:33:12;;;;;;;0.50;0.50;;;19.20;68.90;;;;;;6216480;23;20180;-68
2023/04/23 10:35:39;;;;;;;0.50;0.50;;;19.30;73.70;;;;;;6215994;23;20633;-68
2023/04/23 10:38:07;;;;;;;0.60;0.60;;;19.50;65.00;;;;;;6216521;23;20172;-68
2023/04/23 10:40:35;;;;;;;1.83;0.75;;;19.30;67.00;;;;;;6216347;23;20199;-68
2023/04/23 10:43:03;;;;;;;0.88;0.80;;;19.20;71.60;;;;;;6216024;23;20634;-68
2023/04/23 10:45:31;;;;;;;0.60;0.60;;;19.50;72.90;;;;;;6216386;23;20214;-71
2023/04/23 10:47:58;;;;;;;1.08;0.70;;;19.70;66.30;;;;;;6216432;23;20176;-68
2023/04/23 10:50:27;;;;;;;0.90;0.90;;;19.70;64.50;;;;;;6216314;23;20196;-67
2023/04/23 10:52:55;;;;;;;0.85;0.70;;;19.80;67.60;;;;;;6216251;23;20693;-67
2023/04/23 10:55:24;;;;;;;0.50;0.50;;;20.00;68.90;;;;;;6216310;23;20176;-67
2023/04/23 10:58:04;;;;;;;0.88;0.88;;;20.10;66.10;;;;;;6215759;23;20665;-68
2023/04/23 11:00:44;;;;;;;0.60;0.60;;;20.30;60.90;;;;;;6216186;23;20199;-68
2023/04/23 11:03:30;;;;;;;0.75;0.75;;;20.40;58.50;;;;;;6216299;23;20164;-68
2023/04/23 11:05:57;;;;;;;0.95;0.95;;;20.30;54.00;;;;;;6216055;23;20219;-68
2023/04/23 11:08:24;;;;;;;1.75;0.70;;;20.10;56.70;;;;;;6216201;23;20179;-68
2023/04/23 11:10:54;;;;;;;0.68;0.68;;;20.00;62.60;;;;;;6216055;23;20200;-68
2023/04/23 11:13:24;;;;;;;0.90;0.90;;;20.00;59.80;;;;;;6215772;23;20180;-68
2023/04/23 11:16:12;;;;;;;3.03;0.70;;;19.90;63.30;;;;;;6215962;23;20255;-67
2023/04/23 11:18:54;;;;;;;0.60;0.60;;;20.00;63.60;;;;;;6216059;23;20228;-68
2023/04/23 11:21:21;;;;;;;0.63;0.63;;;20.10;64.70;;;;;;6216037;23;20260;-66
2023/04/23 11:23:48;;;;;;;0.73;0.73;;;20.30;61.80;;;;;;6216031;23;20176;-66
2023/04/23 11:26:17;;;;;;;0.88;0.73;;;20.20;58.00;;;;;;6215977;23;20173;-67
2023/04/23 11:28:47;;;;;;;0.77;0.77;;;20.10;59.20;;;;;;6215974;23;20478;-66
2023/04/23 11:31:15;;;;;;;1.52;0.93;;;20.10;65.10;;;;;;6215971;23;20172;-66
2023/04/23 11:33:41;;;;;;;1.13;1.05;;;20.50;67.40;;;;;;6215915;23;20524;-66
2023/04/23 11:36:08;;;;;;;1.27;1.10;;;20.50;59.00;;;;;;6215874;23;20232;-66
2023/04/23 11:38:35;;;;;;;0.63;0.63;;;20.50;57.10;;;;;;6215951;23;20179;-67
2023/04/23 11:41:04;;;;;;;2.03;0.90;;;20.50;59.00;;;;;;6215678;23;20649;-68
2023/04/23 11:43:30;;;;;;;0.95;0.90;;;20.50;56.40;;;;;;6216229;23;20211;-67
2023/04/23 11:46:00;;;;;;;1.50;0.80;;;20.50;52.60;;;;;;6215653;23;20187;-68
2023/04/23 11:48:27;;;;;;;0.88;0.88;;;20.50;53.50;;;;;;6216165;23;20165;-67
2023/04/23 11:50:54;;;;;;;0.70;0.70;;;20.50;54.00;;;;;;6216205;23;20576;-66
2023/04/23 11:53:22;;;;;;;1.10;0.80;;;20.40;52.60;;;;;;6216140;23;20505;-67
2023/04/23 11:55:49;;;;;;;0.75;0.75;;;20.30;55.50;;;;;;6215898;23;20195;-67
2023/04/23 11:58:17;;;;;;;0.82;0.82;;;20.40;53.00;;;;;;6215752;23;20188;-68
2023/04/23 12:00:44;;;;;;;0.90;0.90;;;20.10;52.20;;;;;;6215438;23;20532;-68
2023/04/23 12:03:15;;;;;;;0.95;0.80;;;19.70;53.40;;;;;;6215876;23;20195;-68
2023/04/23 12:05:44;;;;;;;0.73;0.73;;;19.40;54.20;;;;;;6216373;23;20161;-68
2023/04/23 12:08:15;;;;;;;0.85;0.82;;;19.10;53.90;;;;;;6223305;23;20496;-67
2023/04/23 12:10:46;;;;;;;0.70;0.70;;;18.80;57.50;;;;;;6223606;23;20216;-68
2023/04/23 12:13:17;;;;;;;1.92;1.15;;;19.00;57.30;;;;;;6224100;23;20207;-67
2023/04/23 12:15:49;;;;;;;0.93;0.93;;;19.20;56.70;;;;;;6223559;23;20176;-67
2023/04/23 12:18:18;;;;;;;1.25;0.90;;;19.30;59.60;;;;;;6223833;23;20480;-67
2023/04/23 12:20:45;;;;;;;0.95;0.95;;;19.30;58.80;;;;;;6224439;23;20200;-66
2023/04/23 12:23:12;;;;;;;3.08;1.23;;;19.40;59.80;;;;;;6224932;23;20176;-67
2023/04/23 12:25:41;;;;;;;0.82;0.82;;;19.10;60.80;;;;;;6219849;23;20191;-67
2023/04/23 12:28:08;;;;;;;2.28;1.20;;;19.10;60.60;;;;;;6222643;23;20172;-67
2023/04/23 12:30:43;;;;;;;1.10;0.90;;;18.90;61.30;;;;;;6221521;23;20196;-67
2023/04/23 12:33:11;;;;;;;0.70;0.70;;;18.80;63.80;;;;;;6223699;23;20194;-68
2023/04/23 12:35:41;;;;;;;1.17;1.08;;;18.80;61.10;;;;;;6223375;23;20486;-67
2023/04/23 12:38:23;;;;;;;1.15;0.90;;;18.60;62.90;;;;;;6220786;23;20676;-67
2023/04/23 12:40:50;;;;;;;1.48;1.00;;;18.50;67.90;;;;;;6218286;23;20196;-67
2023/04/23 12:43:17;;;;;;;2.42;1.05;;;18.30;66.70;;;;;;6217881;23;20165;-68
2023/04/23 12:45:45;;;;;;;1.48;1.25;;;18.10;66.00;;;;;;6218002;23;20156;-68
2023/04/23 12:48:11;;;;;;;0.70;0.70;;;17.90;63.10;;;;;;6217954;23;20164;-68
2023/04/23 12:50:40;;;;;;;0.70;0.70;;;17.80;68.90;;;;;;6217800;23;20200;-67
2023/04/23 12:53:07;;;;;;;1.23;1.10;;;17.80;71.10;;;;;;6218379;23;20176;-68
2023/04/23 12:55:33;;;;;;;0.90;0.90;;;17.70;68.80;;;;;;6217873;23;20189;-68
2023/04/23 12:58:00;;;;;;;1.15;1.15;;;17.60;71.80;;;;;;6217678;23;20196;-68
2023/04/23 13:00:27;;;;;;;3.38;1.30;;;17.50;71.80;;;;;;6218732;23;20200;-67
2023/04/23 13:02:55;;;;;;;1.20;1.20;;;17.40;76.80;;;;;;6217640;23;20486;-67
2023/04/23 13:05:22;;;;;;;0.80;0.80;;;17.30;83.10;;;;;;6217241;23;20664;-68
2023/04/23 13:07:52;;;;;;;0.85;0.85;;;17.50;87.00;;;;;;6217248;23;20156;-68
2023/04/23 13:10:19;;;;;;;2.42;1.00;;;17.60;81.00;;;;;;6217429;23;20215;-68
2023/04/23 13:12:46;;;;;;;0.80;0.80;;;17.80;80.20;;;;;;6217189;23;20188;-68
2023/04/23 13:15:12;;;;;;;1.27;1.17;;;17.90;81.80;;;;;;6217346;23;20267;-68
2023/04/23 13:17:40;;;;;;;1.08;1.08;;;18.00;76.50;;;;;;6216847;23;20254;-69
2023/04/23 13:20:07;;;;;;;1.15;1.00;;;18.10;80.20;;;;;;6217462;23;20196;-69
2023/04/23 13:22:34;;;;;;;0.90;0.90;;;18.20;71.80;;;;;;6217395;23;20186;-68
2023/04/23 13:25:03;;;;;;;0.85;0.70;;;18.20;69.40;;;;;;6217421;23;20223;-68
2023/04/23 13:27:29;;;;;;;1.08;1.00;;;18.20;70.10;;;;;;6217242;23;20214;-68
2023/04/23 13:29:57;;;;;;;1.27;1.10;;;18.30;66.00;;;;;;6217247;23;20203;-68
2023/04/23 13:32:25;;;;;;;0.80;0.80;;;18.30;64.80;;;;;;6217374;23;20255;-69
2023/04/23 13:34:52;;;;;;;1.38;1.00;;;18.20;65.50;;;;;;6217364;23;20172;-68
2023/04/23 13:37:19;;;;;;;0.77;0.70;;;18.30;67.40;;;;;;6217457;23;20188;-68
2023/04/23 13:39:46;;;;;;;2.60;1.15;;;18.40;69.40;;;;;;6217840;23;20250;-69
2023/04/23 13:42:14;;;;;;;1.00;0.90;;;18.40;68.70;;;;;;6217195;23;20172;-69
2023/04/23 13:44:40;;;;;;;0.98;0.98;;;18.70;70.80;;;;;;6217432;23;20176;-68
2023/04/23 13:47:07;;;;;;;1.17;1.08;;;18.80;66.20;;;;;;6217139;23;20172;-70
2023/04/23 13:49:34;;;;;;;1.38;0.95;;;18.90;63.60;;;;;;6216855;23;20203;-68
2023/04/23 13:52:05;;;;;;;1.10;1.00;;;19.10;63.00;;;;;;6216948;23;20172;-68
2023/04/23 13:54:32;;;;;;;3.90;1.20;;;19.30;64.50;;;;;;6217085;23;20156;-68
2023/04/23 13:56:59;;;;;;;1.38;0.82;;;19.20;58.80;;;;;;6217429;23;20203;-67
2023/04/23 13:59:27;;;;;;;0.85;0.85;;;19.40;56.20;;;;;;6217227;23;20242;-68
2023/04/23 14:01:54;;;;;;;0.73;0.73;;;19.40;57.30;;;;;;6217151;23;20183;-68
2023/04/23 14:04:22;;;;;;;0.77;0.77;;;19.60;58.00;;;;;;6217090;23;20184;-68
2023/04/23 14:06:49;;;;;;;0.90;0.88;;;19.70;56.20;;;;;;6216998;23;20184;-69
2023/04/23 14:09:16;;;;;;;0.70;0.70;;;19.90;54.70;;;;;;6217844;23;20196;-69
2023/04/23 14:11:43;;;;;;;1.00;0.85;;;19.80;53.10;;;;;;6216978;23;20180;-69
2023/04/23 14:14:09;;;;;;;0.90;0.90;;;19.70;53.80;;;;;;6217074;23;20175;-69
2023/04/23 14:16:37;;;;;;;1.50;0.80;;;19.80;55.30;;;;;;6217007;23;20183;-69
2023/04/23 14:19:04;;;;;;;0.80;0.80;;;20.00;54.70;;;;;;6217029;23;20197;-69
2023/04/23 14:21:31;;;;;;;0.77;0.77;;;20.10;53.90;;;;;;6217296;23;20178;-69
2023/04/23 14:24:02;;;;;;;1.90;0.80;;;20.30;52.00;;;;;;6217092;23;20176;-69
2023/04/23 14:26:34;;;;;;;1.40;0.93;;;20.30;53.40;;;;;;6216741;23;20160;-69
2023/04/23 14:29:09;;;;;;;0.70;0.70;;;20.40;52.30;;;;;;6216272;23;20192;-68
2023/04/23 14:31:38;;;;;;;0.80;0.70;;;20.50;52.70;;;;;;6217127;23;20160;-69
2023/04/23 14:34:05;;;;;;;0.98;0.90;;;20.50;52.40;;;;;;6216889;23;20172;-68
2023/04/23 14:36:31;;;;;;;1.40;0.93;;;20.50;50.30;;;;;;6216659;23;20180;-68
2023/04/23 14:39:03;;;;;;;1.67;0.90;;;20.60;50.60;;;;;;6216018;23;20684;-69
2023/04/23 14:41:31;;;;;;;1.02;0.68;;;20.50;51.00;;;;;;6216687;23;20160;-68
2023/04/23 14:43:58;;;;;;;1.40;1.30;;;20.40;50.50;;;;;;6216830;23;20570;-68
2023/04/23 14:46:25;;;;;;;0.95;0.95;;;20.10;51.80;;;;;;6217152;23;20234;-67
2023/04/23 14:48:53;;;;;;;1.95;0.98;;;20.00;54.20;;;;;;6216622;23;20492;-68
2023/04/23 14:51:20;;;;;;;1.15;0.85;;;19.90;55.70;;;;;;6216570;23;20263;-68
2023/04/23 14:53:47;;;;;;;1.00;1.00;;;19.80;56.60;;;;;;6216609;23;20179;-67
2023/04/23 14:56:13;;;;;;;1.08;0.82;;;19.90;56.60;;;;;;6216530;23;20172;-68
2023/04/23 14:58:41;;;;;;;2.50;0.90;;;19.90;53.00;;;;;;6216361;23;20196;-67
2023/04/23 15:01:07;;;;;;;0.80;0.80;;;19.80;52.80;;;;;;6216700;23;20200;-68
2023/04/23 15:03:35;;;;;;;1.63;1.00;;;19.90;52.40;;;;;;6216423;23;20176;-67
2023/04/23 15:06:04;;;;;;;0.88;0.80;;;20.10;52.60;;;;;;6217870;23;20530;-68
2023/04/23 15:08:30;;;;;;;1.55;0.70;;;20.20;51.50;;;;;;6216266;23;20617;-68
2023/04/23 15:10:58;;;;;;;0.80;0.80;;;20.30;51.40;;;;;;6216817;23;20175;-68
2023/04/23 15:13:44;;;;;;;2.03;1.00;;;20.40;52.30;;;;;;6218189;23;20215;-68
2023/04/23 15:16:23;;;;;;;2.25;0.90;;;20.20;50.20;;;;;;6216561;23;20512;-68
2023/04/23 15:18:50;;;;;;;1.02;1.02;;;20.10;51.30;;;;;;6216806;23;20553;-68
2023/04/23 15:21:18;;;;;;;1.23;1.13;;;20.00;51.30;;;;;;6216896;23;20226;-67
2023/04/23 15:23:45;;;;;;;0.98;0.95;;;19.80;51.80;;;;;;6217944;23;20500;-67
2023/04/23 15:26:11;;;;;;;1.30;1.00;;;19.70;50.70;;;;;;6217217;23;20172;-67
2023/04/23 15:28:38;;;;;;;0.98;0.90;;;19.50;51.50;;;;;;6216727;23;20176;-68
2023/04/23 15:31:05;;;;;;;2.97;1.20;;;19.50;51.50;;;;;;6217065;23;20178;-68
2023/04/23 15:33:32;;;;;;;4.03;1.17;;;19.30;50.10;;;;;;6217968;23;20470;-67
2023/04/23 15:35:58;;;;;;;1.55;0.85;;;19.20;50.40;;;;;;6217487;23;20187;-67
2023/04/23 15:38:27;;;;;;;0.80;0.60;;;19.10;49.30;;;;;;6216708;23;20200;-67
2023/04/23 15:40:55;;;;;;;0.93;0.93;;;19.10;49.40;;;;;;6216385;23;20196;-68
2023/04/23 15:43:22;;;;;;;0.60;0.60;;;19.10;51.10;;;;;;6217152;23;20160;-68
2023/04/23 15:45:51;;;;;;;1.10;0.80;;;19.20;50.90;;;;;;6216960;23;20164;-68
2023/04/23 15:48:18;;;;;;;1.17;0.60;;;19.10;50.20;;;;;;6216957;23;20222;-68
2023/04/23 15:50:45;;;;;;;2.47;1.00;;;19.00;50.90;;;;;;6216437;23;20203;-68
2023/04/23 15:53:12;;;;;;;1.48;0.73;;;18.90;52.90;;;;;;6216706;23;20179;-68
2023/04/23 15:55:40;;;;;;;1.05;1.00;;;18.90;52.10;;;;;;6216449;23;20176;-68
2023/04/23 15:58:07;;;;;;;1.40;1.15;;;18.80;51.50;;;;;;6216395;23;20219;-69
2023/04/23 16:00:34;;;;;;;0.73;0.73;;;18.70;52.60;;;;;;6216286;23;20192;-68
2023/04/23 16:03:03;;;;;;;0.85;0.85;;;18.70;52.80;;;;;;6216484;23;20157;-68
2023/04/23 16:05:31;;;;;;;0.70;0.70;;;18.60;54.90;;;;;;6216235;23;20176;-68
2023/04/23 16:07:58;;;;;;;0.70;0.70;;;18.50;56.30;;;;;;6216222;23;20219;-68
2023/04/23 16:10:25;;;;;;;0.60;0.60;;;18.50;59.10;;;;;;6216435;23;20211;-68
2023/04/23 16:12:53;;;;;;;0.95;0.93;;;18.30;63.70;;;;;;6216192;23;20184;-67
2023/04/23 16:15:20;;;;;;;0.80;0.80;;;18.20;65.90;;;;;;6215961;23;20652;-67
2023/04/23 16:17:47;;;;;;;0.80;0.80;;;18.10;71.70;;;;;;6216230;23;20192;-67
2023/04/23 16:20:14;;;;;;;0.88;0.88;;;17.90;74.80;;;;;;6216532;23;20699;-68
2023/04/23 16:22:41;;;;;;;1.42;1.27;;;17.70;78.20;;;;;;6216174;23;20172;-67
2023/04/23 16:25:08;;;;;;;1.15;1.15;;;17.50;83.40;;;;;;6216124;23;20195;-67
2023/04/23 16:27:35;;;;;;;1.23;1.10;;;17.30;86.70;;;;;;6215959;23;20176;-67
2023/04/23 16:30:04;;;;;;;0.90;0.90;;;17.10;89.00;;;;;;6215424;23;20686;-67
2023/04/23 16:32:31;;;;;;;0.80;0.80;;;17.00;91.00;;;;;;6216537;23;20203;-67
2023/04/23 16:34:57;;;;;;;1.02;1.02;;;16.80;92.60;;;;;;6215851;23;20231;-67
2023/04/23 16:37:24;;;;;;;0.75;0.75;;;16.70;93.70;;;;;;6216097;23;20180;-67
2023/04/23 16:39:51;;;;;;;0.98;0.98;;;16.70;94.90;;;;;;6215488;23;20550;-68
2023/04/23 16:42:17;;;;;;;1.48;1.00;;;16.60;95.60;;;;;;6216159;23;20183;-67
2023/04/23 16:44:45;;;;;;;0.95;0.90;;;16.50;96.60;;;;;;6216164;23;20172;-69
2023/04/23 16:47:13;;;;;;;0.80;0.77;;;16.50;97.10;;;;;;6216093;23;20208;-69
2023/04/23 16:49:40;;;;;;;1.85;1.10;;;16.50;99.80;;;;;;6216133;23;20193;-69
2023/04/23 16:52:07;;;;;;;1.10;1.00;;;16.50;99.30;;;;;;6216398;23;20176;-70
2023/04/23 16:54:34;;;;;;;1.23;0.90;;;16.40;99.60;;;;;;6217767;23;20264;-69
2023/04/23 16:57:03;;;;;;;2.35;1.20;;;16.30;99.90;;;;;;6217831;23;20184;-69
2023/04/23 16:59:29;;;;;;;1.15;1.13;;;16.30;99.90;;;;;;6217384;23;20744;-69
2023/04/23 17:01:56;;;;;;;1.10;1.10;;;16.30;99.90;;;;;;6217506;23;20484;-69
2023/04/23 17:04:24;;;;;;;1.10;1.00;;;16.20;99.90;;;;;;6217852;23;20180;-69
2023/04/23 17:06:51;;;;;;;1.00;1.00;;;16.10;99.90;;;;;;6217669;23;20177;-69
2023/04/23 17:09:18;;;;;;;1.60;1.15;;;16.10;99.90;;;;;;6217737;23;20192;-69
2023/04/23 17:11:45;;;;;;;0.85;0.85;;;16.00;99.90;;;;;;6217472;23;20184;-69
2023/04/23 17:14:12;;;;;;;1.52;0.80;;;16.00;99.90;;;;;;6217669;23;20227;-69
2023/04/23 17:16:38;;;;;;;0.98;0.98;;;16.00;99.90;;;;;;6218564;23;20179;-68
2023/04/23 17:19:05;;;;;;;0.77;0.77;;;16.00;99.90;;;;;;6217392;23;20253;-69
2023/04/23 17:21:33;;;;;;;1.30;0.90;;;16.00;99.90;;;;;;6217149;23;20637;-68
2023/04/23 17:24:00;;;;;;;0.80;0.80;;;16.00;99.90;;;;;;6217181;23;20623;-68
2023/04/23 17:26:26;;;;;;;0.88;0.88;;;16.10;99.40;;;;;;6217716;23;20176;-67
2023/04/23 17:28:53;;;;;;;0.70;0.70;;;16.10;98.20;;;;;;6217631;23;20197;-69
2023/04/23 17:31:20;;;;;;;0.60;0.60;;;16.10;94.80;;;;;;6217608;23;20185;-68
2023/04/23 17:33:48;;;;;;;0.60;0.60;;;16.10;92.40;;;;;;6217527;23;20172;-68
2023/04/23 17:36:15;;;;;;;1.02;0.88;;;16.00;87.60;;;;;;6217286;23;20172;-68
2023/04/23 17:38:43;;;;;;;0.93;0.80;;;15.90;87.80;;;;;;6217241;23;20212;-69
2023/04/23 17:41:10;;;;;;;0.90;0.88;;;15.80;84.70;;;;;;6218222;23;20522;-68
2023/04/23 17:43:38;;;;;;;1.20;1.10;;;15.70;84.40;;;;;;6220041;23;20177;-68
2023/04/23 17:46:05;;;;;;;0.60;0.60;;;15.60;85.60;;;;;;6217906;23;20184;-68
2023/04/23 17:48:32;;;;;;;0.70;0.70;;;15.50;90.40;;;;;;6217067;23;20169;-69
2023/04/23 17:50:58;;;;;;;0.75;0.75;;;15.50;94.40;;;;;;6217071;23;20183;-68
2023/04/23 17:53:25;;;;;;;0.70;0.70;;;15.40;96.80;;;;;;6217385;23;20173;-68
2023/04/23 17:55:57;;;;;;;0.60;0.60;;;15.30;97.60;;;;;;6217352;23;20239;-68
2023/04/23 17:58:24;;;;;;;0.70;0.70;;;15.20;93.00;;;;;;6217291;23;20177;-68
2023/04/23 18:00:51;;;;;;;1.15;0.77;;;15.10;91.60;;;;;;6217182;23;20200;-68
2023/04/23 18:03:19;;;;;;;0.50;0.50;;;15.00;92.10;;;;;;6217003;23;20173;-69
2023/04/23 18:05:46;;;;;;;0.70;0.70;;;14.90;94.60;;;;;;6217060;23;20177;-68
2023/04/23 18:08:15;;;;;;;0.93;0.90;;;14.90;95.40;;;;;;6216858;23;20177;-68
2023/04/23 18:10:41;;;;;;;0.60;0.60;;;14.80;89.10;;;;;;6217133;23;20193;-68
2023/04/23 18:13:10;;;;;;;0.40;0.40;;;14.70;77.60;;;;;;6216677;23;20230;-68
2023/04/23 18:15:37;;;;;;;0.63;0.63;;;14.60;76.90;;;;;;6216500;23;20635;-67
2023/04/23 18:18:04;;;;;;;0.68;0.50;;;14.60;76.40;;;;;;6217028;23;20181;-69
2023/04/23 18:20:34;;;;;;;0.80;0.80;;;14.50;77.10;;;;;;6216986;23;20196;-68
2023/04/23 18:23:01;;;;;;;0.50;0.50;;;14.50;77.20;;;;;;6216773;23;20176;-69
2023/04/23 18:25:27;;;;;;;1.52;0.68;;;14.40;74.80;;;;;;6216844;23;20176;-68
2023/04/23 18:27:54;;;;;;;0.60;0.60;;;14.40;73.80;;;;;;6216855;23;20228;-68
2023/04/23 18:30:24;;;;;;;0.52;0.50;;;14.30;72.20;;;;;;6216883;23;20188;-68
2023/04/23 18:33:02;;;;;;;0.50;0.50;;;14.30;71.80;;;;;;6217323;23;20181;-68
2023/04/23 18:35:28;;;;;;;0.68;0.68;;;14.20;71.70;;;;;;6216985;23;20161;-69
2023/04/23 18:38:05;;;;;;;1.63;0.88;;;14.20;73.20;;;;;;6216952;23;20188;-68
2023/04/23 18:40:32;;;;;;;0.60;0.60;;;14.10;76.30;;;;;;6216804;23;20189;-68
2023/04/23 18:42:59;;;;;;;0.63;0.60;;;14.00;79.10;;;;;;6216521;23;20177;-69
2023/04/23 18:45:27;;;;;;;1.27;0.60;;;14.00;83.20;;;;;;6216603;23;20226;-68
2023/04/23 18:47:58;;;;;;;0.40;0.40;;;13.90;84.70;;;;;;6216956;23;20176;-68
2023/04/23 18:50:37;;;;;;;2.03;0.47;;;13.80;89.70;;;;;;6216975;23;20224;-69
2023/04/23 18:53:04;;;;;;;0.30;0.30;;;13.70;93.90;;;;;;6216715;23;20168;-67
2023/04/23 18:55:31;;;;;;;0.40;0.40;;;13.60;96.60;;;;;;6216650;23;20188;-67
2023/04/23 18:57:58;;;;;;;0.40;0.40;;;13.50;99.60;;;;;;6216696;23;20179;-68
2023/04/23 19:00:24;;;;;;;0.40;0.40;;;13.30;99.90;;;;;;6216435;23;20201;-68